Disclaimer

Please do not use the information listed here in-flight or in-navigation, as they are not provided to us by the airports but are provided by volunteers, so they might be outdated.

Search


Regions


Airport information page

Radio informations:
Tower (TWR) - 118.8 MHz
QUEBEC RDO - 123.15 MHz
Ground (GND) - 121.9 MHz
DEP - 128.175 MHz
Clearance delivery - 119.4 MHz
Automatic Terminal Information Service (ATIS) - 121.15 MHz
Approach (APP) - 135.15 MHz

Airport informations:
Latitude: 45° 19' 21.00" N
Longitude: 075° 40' 09.00" W
Elevation: 374 feet - 114 meters
Operating hours: 24 hour operations
Operating agency: Civil government, landing fees and diplomatic clearance may be required
Timezone: UTC-5(-4DT) - Second Sunday in March at 0200 to first Sunday in November at 0200 local time (Exception Arizona and that portion of Indiana in the Eastern Time Zone)
Fuel: Jet A1+, Jet A1 with icing inhibitor.

Jet A1, without icing nhibitor.

100/130 octane gasoline, leaded, MIL-L-5572F (GREEN)

80/87 octane gasoline, leaded, MIL-L-5572F (RED)

Runway information:
04/22 - 3300 x 75 feet< - >1006 x 23 meters
07/25 - 8000 x 200 feet< - >2438 x 61 meters
14/32 - 10000 x 200 feet< - >3048 x 61 meters

Recent METARs:
CYOW 181600Z 13004KT 15SM BKN053 BKN210 M07/M08 A3034 RMK SC5CI1 SLP284
CYOW 181700Z 16007KT 120V190 15SM BKN055 M04/M09 A3031 RMK SC7 SLP274
CYOW 181700Z 16007KT 120V190 15SM BKN055 M04/M09 A3031 RMK SC7 SLP274

Airport on the map: